createdAt,value
2018-07-08T00:00:05.455Z,15.50
2018-07-08T00:01:05.628Z,15.50
2018-07-08T00:02:05.538Z,15.50
2018-07-08T00:03:06.554Z,15.50
2018-07-08T00:04:06.177Z,15.50
2018-07-08T00:05:05.959Z,15.44
2018-07-08T00:06:05.777Z,15.44
2018-07-08T00:07:06.254Z,15.44
2018-07-08T00:08:05.620Z,15.44
2018-07-08T00:09:06.396Z,15.44
2018-07-08T00:10:06.018Z,15.44
2018-07-08T00:11:06.415Z,15.44
2018-07-08T00:12:06.592Z,15.38
2018-07-08T00:13:05.854Z,15.38
2018-07-08T00:14:05.628Z,15.38
2018-07-08T00:15:06.177Z,15.38
2018-07-08T00:16:05.958Z,15.31
2018-07-08T00:17:05.541Z,15.31
2018-07-08T00:18:05.540Z,15.31
2018-07-08T00:19:05.999Z,15.31
2018-07-08T00:20:06.364Z,15.31
2018-07-08T00:21:05.707Z,15.31
2018-07-08T00:22:05.558Z,15.25
2018-07-08T00:23:05.698Z,15.31
2018-07-08T00:24:06.346Z,15.25
2018-07-08T00:25:07.008Z,15.25
2018-07-08T00:26:06.415Z,15.25
2018-07-08T00:27:06.321Z,15.25
2018-07-08T00:28:05.927Z,15.25
2018-07-08T00:29:06.657Z,15.25
2018-07-08T00:30:05.858Z,15.25
2018-07-08T00:31:11.423Z,15.25
2018-07-08T00:32:05.707Z,15.25
2018-07-08T00:33:06.270Z,15.25
2018-07-08T00:34:05.691Z,15.25
2018-07-08T00:35:05.953Z,15.25
2018-07-08T00:36:05.564Z,15.25
2018-07-08T00:37:06.491Z,15.25
2018-07-08T00:38:05.776Z,15.25
2018-07-08T00:39:06.732Z,15.19
2018-07-08T00:40:11.410Z,15.19
2018-07-08T00:41:06.029Z,15.19
2018-07-08T00:42:06.214Z,15.19
2018-07-08T00:43:10.686Z,15.19
2018-07-08T00:44:06.037Z,15.19
2018-07-08T00:45:05.617Z,15.19
2018-07-08T00:46:05.550Z,15.19
2018-07-08T00:47:11.178Z,15.19
2018-07-08T00:48:05.858Z,15.12
2018-07-08T00:49:05.825Z,15.12
2018-07-08T00:50:06.718Z,15.12
2018-07-08T00:51:06.176Z,15.12
2018-07-08T00:52:05.861Z,15.12
2018-07-08T00:53:06.256Z,15.12
2018-07-08T00:54:06.103Z,15.12
2018-07-08T00:55:05.908Z,15.06
2018-07-08T00:56:11.186Z,15.06
2018-07-08T00:57:05.790Z,15.06
2018-07-08T00:58:06.594Z,15.06
2018-07-08T00:59:06.701Z,15.00
2018-07-08T01:00:05.596Z,15.00
2018-07-08T01:01:05.946Z,15.00
2018-07-08T01:02:05.625Z,15.00
2018-07-08T01:03:06.127Z,14.94
2018-07-08T01:04:06.393Z,14.94
2018-07-08T01:05:06.729Z,14.94
2018-07-08T01:06:06.626Z,14.94
2018-07-08T01:07:06.033Z,14.88
2018-07-08T01:08:05.605Z,14.88
2018-07-08T01:09:06.166Z,14.88
2018-07-08T01:10:05.902Z,14.88
2018-07-08T01:11:06.185Z,14.88
2018-07-08T01:12:10.899Z,14.88
2018-07-08T01:13:06.279Z,14.88
2018-07-08T01:14:05.534Z,14.81
2018-07-08T01:15:06.574Z,14.81
2018-07-08T01:16:05.452Z,14.81
2018-07-08T01:17:05.956Z,14.81
2018-07-08T01:18:06.097Z,14.81
2018-07-08T01:19:06.141Z,14.75
2018-07-08T01:20:06.162Z,14.75
2018-07-08T01:21:05.737Z,14.75
2018-07-08T01:22:06.224Z,14.75
2018-07-08T01:23:11.109Z,14.75
2018-07-08T01:24:05.622Z,14.75
2018-07-08T01:25:06.359Z,14.75
2018-07-08T01:26:05.926Z,14.75
2018-07-08T01:27:05.793Z,14.75
2018-07-08T01:28:06.038Z,14.69
2018-07-08T01:29:06.336Z,14.69
2018-07-08T01:30:06.185Z,14.69
2018-07-08T01:31:07.306Z,14.62
2018-07-08T01:32:06.522Z,14.62
2018-07-08T01:33:05.856Z,14.62
2018-07-08T01:34:11.251Z,14.62
2018-07-08T01:35:05.691Z,14.56
2018-07-08T01:36:05.549Z,14.56
2018-07-08T01:37:06.024Z,14.56
2018-07-08T01:38:05.630Z,14.56
2018-07-08T01:39:06.826Z,14.56
2018-07-08T01:40:05.610Z,14.56
2018-07-08T01:41:06.422Z,14.50
2018-07-08T01:42:05.621Z,14.50
2018-07-08T01:43:05.852Z,14.50
2018-07-08T01:44:06.587Z,14.50
2018-07-08T01:45:06.506Z,14.50
2018-07-08T01:46:07.142Z,14.44
2018-07-08T01:47:06.156Z,14.44
2018-07-08T01:48:05.944Z,14.44
2018-07-08T01:49:05.565Z,14.44
2018-07-08T01:50:06.125Z,14.44
2018-07-08T01:51:05.534Z,14.44
2018-07-08T01:52:05.846Z,14.44
2018-07-08T01:53:05.538Z,14.38
2018-07-08T01:54:05.972Z,14.38
2018-07-08T01:55:05.618Z,14.38
2018-07-08T01:56:06.752Z,14.38
2018-07-08T01:57:06.174Z,14.38
2018-07-08T01:58:05.376Z,14.38
2018-07-08T01:59:07.212Z,14.38
2018-07-08T02:00:11.104Z,14.31
2018-07-08T02:01:06.340Z,14.31
2018-07-08T02:02:06.703Z,14.31
2018-07-08T02:03:06.104Z,14.31
2018-07-08T02:04:05.933Z,14.31
2018-07-08T02:05:06.176Z,14.31
2018-07-08T02:06:06.267Z,14.31
2018-07-08T02:07:05.647Z,14.25
2018-07-08T02:08:06.100Z,14.25
2018-07-08T02:09:11.123Z,14.25
2018-07-08T02:10:11.227Z,14.25
2018-07-08T02:11:07.299Z,14.25
2018-07-08T02:12:06.030Z,14.25
2018-07-08T02:13:05.610Z,14.25
2018-07-08T02:14:06.091Z,14.25
2018-07-08T02:15:06.417Z,14.25
2018-07-08T02:16:06.336Z,14.19
2018-07-08T02:17:05.617Z,14.19
2018-07-08T02:18:05.719Z,14.19
2018-07-08T02:19:06.545Z,14.12
2018-07-08T02:20:06.153Z,14.12
2018-07-08T02:21:06.911Z,14.12
2018-07-08T02:22:05.784Z,14.12
2018-07-08T02:23:06.149Z,14.06
2018-07-08T02:24:05.772Z,14.06
2018-07-08T02:25:06.331Z,14.06
2018-07-08T02:26:05.543Z,14.00
2018-07-08T02:27:11.047Z,14.00
2018-07-08T02:28:06.570Z,14.00
2018-07-08T02:29:06.637Z,14.00
2018-07-08T02:30:06.235Z,13.94
2018-07-08T02:31:06.185Z,13.94
2018-07-08T02:32:06.011Z,13.94
2018-07-08T02:33:06.062Z,13.88
2018-07-08T02:34:06.431Z,13.88
2018-07-08T02:35:05.541Z,13.88
2018-07-08T02:36:06.196Z,13.88
2018-07-08T02:37:06.285Z,13.81
2018-07-08T02:38:05.926Z,13.81
2018-07-08T02:39:06.426Z,13.81
2018-07-08T02:40:06.700Z,13.81
2018-07-08T02:41:06.875Z,13.81
2018-07-08T02:42:06.485Z,13.81
2018-07-08T02:43:06.266Z,13.75
2018-07-08T02:44:06.263Z,13.75
2018-07-08T02:45:06.401Z,13.75
2018-07-08T02:46:06.490Z,13.75
2018-07-08T02:47:05.865Z,13.75
2018-07-08T02:48:05.481Z,13.81
2018-07-08T02:49:05.837Z,13.75
2018-07-08T02:50:06.201Z,13.75
2018-07-08T02:51:05.791Z,13.75
2018-07-08T02:52:06.260Z,13.75
2018-07-08T02:53:06.094Z,13.75
2018-07-08T02:54:06.191Z,13.75
2018-07-08T02:55:05.689Z,13.81
2018-07-08T02:56:06.267Z,13.75
2018-07-08T02:57:07.036Z,13.75
2018-07-08T02:58:06.403Z,13.75
2018-07-08T02:59:06.388Z,13.75
2018-07-08T03:00:05.704Z,13.69
2018-07-08T03:01:06.180Z,13.69
2018-07-08T03:02:05.541Z,13.69
2018-07-08T03:03:05.458Z,13.69
2018-07-08T03:04:06.447Z,13.69
2018-07-08T03:05:06.338Z,13.69
2018-07-08T03:06:11.291Z,13.69
2018-07-08T03:07:05.945Z,13.69
2018-07-08T03:08:05.623Z,13.69
2018-07-08T03:09:05.705Z,13.69
2018-07-08T03:10:05.584Z,13.69
2018-07-08T03:11:06.430Z,13.69
2018-07-08T03:12:06.176Z,13.62
2018-07-08T03:13:06.287Z,13.62
2018-07-08T03:14:05.702Z,13.62
2018-07-08T03:15:05.943Z,13.62
2018-07-08T03:16:05.796Z,13.62
2018-07-08T03:17:05.884Z,13.62
2018-07-08T03:18:05.581Z,13.62
2018-07-08T03:19:06.096Z,13.62
2018-07-08T03:20:06.264Z,13.62
2018-07-08T03:21:06.322Z,13.56
2018-07-08T03:22:06.009Z,13.62
2018-07-08T03:23:05.559Z,13.56
2018-07-08T03:24:05.623Z,13.56
2018-07-08T03:25:05.614Z,13.56
2018-07-08T03:26:07.064Z,13.56
2018-07-08T03:27:10.565Z,13.56
2018-07-08T03:28:05.997Z,13.56
2018-07-08T03:29:06.342Z,13.56
2018-07-08T03:30:05.466Z,13.56
2018-07-08T03:31:06.345Z,13.56
2018-07-08T03:32:05.779Z,13.56
2018-07-08T03:33:06.445Z,13.56
2018-07-08T03:34:06.020Z,13.56
2018-07-08T03:35:05.792Z,13.56
2018-07-08T03:36:06.696Z,13.56
2018-07-08T03:37:05.791Z,13.56
2018-07-08T03:38:06.073Z,13.56
2018-07-08T03:39:06.398Z,13.56
2018-07-08T03:40:10.936Z,13.56
2018-07-08T03:41:06.565Z,13.56
2018-07-08T03:42:05.803Z,13.56
2018-07-08T03:43:05.893Z,13.56
2018-07-08T03:44:05.791Z,13.56
2018-07-08T03:45:06.330Z,13.56
2018-07-08T03:46:06.178Z,13.56
2018-07-08T03:47:06.427Z,13.56
2018-07-08T03:48:05.659Z,13.56
2018-07-08T03:49:06.384Z,13.62
2018-07-08T03:50:05.727Z,13.56
2018-07-08T03:51:06.182Z,13.62
2018-07-08T03:52:05.619Z,13.62
2018-07-08T03:53:06.099Z,13.62
2018-07-08T03:54:11.538Z,13.62
2018-07-08T03:55:05.936Z,13.62
2018-07-08T03:56:05.803Z,13.69
2018-07-08T03:57:05.688Z,13.69
2018-07-08T03:58:05.932Z,13.69
2018-07-08T03:59:06.346Z,13.69
2018-07-08T04:00:06.351Z,13.69
2018-07-08T04:01:05.706Z,13.69
2018-07-08T04:02:06.506Z,13.75
2018-07-08T04:03:05.862Z,13.75
2018-07-08T04:04:06.018Z,13.81
2018-07-08T04:05:06.183Z,13.88
2018-07-08T04:06:05.868Z,13.94
2018-07-08T04:07:05.461Z,14.06
2018-07-08T04:08:06.337Z,14.19
2018-07-08T04:09:05.623Z,14.31
2018-07-08T04:10:06.450Z,14.44
2018-07-08T04:11:06.023Z,14.56
2018-07-08T04:12:05.739Z,14.75
2018-07-08T04:13:06.184Z,14.88
2018-07-08T04:14:05.858Z,15.06
2018-07-08T04:15:06.264Z,15.25
2018-07-08T04:16:05.756Z,15.44
2018-07-08T04:17:06.022Z,15.62
2018-07-08T04:18:06.827Z,15.81
2018-07-08T04:19:05.628Z,16.00
2018-07-08T04:20:05.710Z,16.19
2018-07-08T04:21:06.107Z,16.38
2018-07-08T04:22:05.959Z,16.62
2018-07-08T04:23:05.706Z,16.81
2018-07-08T04:24:06.182Z,17.00
2018-07-08T04:25:10.869Z,17.19
2018-07-08T04:26:11.116Z,17.38
2018-07-08T04:27:05.372Z,17.56
2018-07-08T04:28:06.096Z,17.75
2018-07-08T04:29:05.616Z,17.94
2018-07-08T04:30:05.865Z,18.12
2018-07-08T04:31:06.931Z,18.38
2018-07-08T04:32:06.000Z,18.50
2018-07-08T04:33:05.881Z,18.69
2018-07-08T04:34:05.546Z,18.88
2018-07-08T04:35:06.347Z,19.00
2018-07-08T04:36:05.458Z,19.19
2018-07-08T04:37:06.170Z,19.38
2018-07-08T04:38:05.626Z,19.56
2018-07-08T04:39:05.455Z,19.69
2018-07-08T04:40:06.036Z,19.88
2018-07-08T04:41:06.095Z,20.06
2018-07-08T04:42:06.171Z,20.25
2018-07-08T04:43:10.778Z,20.38
2018-07-08T04:44:06.111Z,20.56
2018-07-08T04:45:05.695Z,20.69
2018-07-08T04:46:06.469Z,20.81
2018-07-08T04:47:05.948Z,21.00
2018-07-08T04:48:05.951Z,21.19
2018-07-08T04:49:06.064Z,21.38
2018-07-08T04:50:05.793Z,21.50
2018-07-08T04:51:06.109Z,21.69
2018-07-08T04:52:05.606Z,21.88
2018-07-08T04:53:06.109Z,22.06
2018-07-08T04:54:05.463Z,22.25
2018-07-08T04:55:05.714Z,22.44
2018-07-08T04:56:06.437Z,22.62
2018-07-08T04:57:05.855Z,22.81
2018-07-08T04:58:05.934Z,23.00
2018-07-08T04:59:06.100Z,23.12
2018-07-08T05:00:05.789Z,23.31
2018-07-08T05:01:06.126Z,23.50
2018-07-08T05:02:05.940Z,23.69
2018-07-08T05:03:06.206Z,23.88
2018-07-08T05:04:05.776Z,24.00
2018-07-08T05:05:05.378Z,24.12
2018-07-08T05:06:06.178Z,24.31
2018-07-08T05:07:06.504Z,24.38
2018-07-08T05:08:05.925Z,24.56
2018-07-08T05:09:06.886Z,24.75
2018-07-08T05:10:06.127Z,24.88
2018-07-08T05:11:10.890Z,25.00
2018-07-08T05:12:06.099Z,25.12
2018-07-08T05:13:06.357Z,25.31
2018-07-08T05:14:05.781Z,25.50
2018-07-08T05:15:06.335Z,25.69
2018-07-08T05:16:06.544Z,25.88
2018-07-08T05:17:06.311Z,26.06
2018-07-08T05:18:06.190Z,26.25
2018-07-08T05:19:05.785Z,26.38
2018-07-08T05:20:05.981Z,26.56
2018-07-08T05:21:05.624Z,26.75
2018-07-08T05:22:06.339Z,26.88
2018-07-08T05:23:05.612Z,27.00
2018-07-08T05:24:05.711Z,27.12
2018-07-08T05:25:06.518Z,27.31
2018-07-08T05:26:05.881Z,27.38
2018-07-08T05:27:06.266Z,27.50
2018-07-08T05:28:05.781Z,27.44
2018-07-08T05:29:06.329Z,27.56
2018-07-08T05:30:05.778Z,27.62
2018-07-08T05:31:06.244Z,27.81
2018-07-08T05:32:06.383Z,27.94
2018-07-08T05:33:06.289Z,28.00
2018-07-08T05:34:06.257Z,28.06
2018-07-08T05:35:05.792Z,28.19
2018-07-08T05:36:05.619Z,28.50
2018-07-08T05:37:06.488Z,28.88
2018-07-08T05:38:06.931Z,29.38
2018-07-08T05:39:15.889Z,29.62
2018-07-08T05:40:05.455Z,30.00
2018-07-08T05:41:11.091Z,30.31
2018-07-08T05:42:05.566Z,30.56
2018-07-08T05:43:06.445Z,30.75
2018-07-08T05:44:06.031Z,30.50
2018-07-08T05:45:06.780Z,30.81
2018-07-08T05:46:07.072Z,31.00
2018-07-08T05:47:06.201Z,31.12
2018-07-08T05:48:06.512Z,31.25
2018-07-08T05:49:10.947Z,31.12
2018-07-08T05:50:06.385Z,31.12
2018-07-08T05:51:05.543Z,30.56
2018-07-08T05:52:06.512Z,30.19
2018-07-08T05:53:06.405Z,30.00
2018-07-08T05:54:06.332Z,30.38
2018-07-08T05:55:06.208Z,30.88
2018-07-08T05:56:10.703Z,31.12
2018-07-08T05:57:06.241Z,31.12
2018-07-08T05:58:06.277Z,31.00
2018-07-08T05:59:05.928Z,31.00
2018-07-08T06:00:05.744Z,31.25
2018-07-08T06:01:05.457Z,31.44
2018-07-08T06:02:06.350Z,31.50
2018-07-08T06:03:05.833Z,31.56
2018-07-08T06:04:10.653Z,31.50
2018-07-08T06:05:06.274Z,31.56
2018-07-08T06:06:05.872Z,31.38
2018-07-08T06:07:11.025Z,31.19
2018-07-08T06:08:06.679Z,31.06
2018-07-08T06:09:05.685Z,31.00
2018-07-08T06:10:07.004Z,30.81
2018-07-08T06:11:05.775Z,30.75
2018-07-08T06:12:07.050Z,30.75
2018-07-08T06:13:05.714Z,30.62
2018-07-08T06:14:06.357Z,30.56
2018-07-08T06:15:06.000Z,30.44
2018-07-08T06:16:06.109Z,30.38
2018-07-08T06:17:06.364Z,30.31
2018-07-08T06:18:05.933Z,30.19
2018-07-08T06:19:05.548Z,30.12
2018-07-08T06:20:11.372Z,30.12
2018-07-08T06:21:05.782Z,30.12
2018-07-08T06:22:05.907Z,30.12
2018-07-08T06:23:06.212Z,30.25
2018-07-08T06:24:06.103Z,30.38
2018-07-08T06:25:06.589Z,30.44
2018-07-08T06:26:06.324Z,30.44
2018-07-08T06:27:06.188Z,30.50
2018-07-08T06:28:06.281Z,30.56
2018-07-08T06:29:06.027Z,30.62
2018-07-08T06:30:05.754Z,30.62
2018-07-08T06:31:06.096Z,30.75
2018-07-08T06:32:06.011Z,30.75
2018-07-08T06:33:10.770Z,30.81
2018-07-08T06:34:06.266Z,30.88
2018-07-08T06:35:07.151Z,30.88
2018-07-08T06:36:06.272Z,30.94
2018-07-08T06:37:06.566Z,31.06
2018-07-08T06:38:11.344Z,31.12
2018-07-08T06:39:05.899Z,31.12
2018-07-08T06:40:05.871Z,31.06
2018-07-08T06:41:05.871Z,31.00
2018-07-08T06:42:06.062Z,30.94
2018-07-08T06:43:06.273Z,30.81
2018-07-08T06:44:06.024Z,30.88
2018-07-08T06:45:05.703Z,30.94
2018-07-08T06:46:10.878Z,31.00
2018-07-08T06:47:05.783Z,31.06
2018-07-08T06:48:05.737Z,31.06
2018-07-08T06:49:05.550Z,31.19
2018-07-08T06:50:05.711Z,31.19
2018-07-08T06:51:06.248Z,31.19
2018-07-08T06:52:06.316Z,31.25
2018-07-08T06:53:06.348Z,31.31
2018-07-08T06:54:06.143Z,31.44
2018-07-08T06:55:05.780Z,31.44
2018-07-08T06:56:06.038Z,31.56
2018-07-08T06:57:05.922Z,31.62
2018-07-08T06:58:06.713Z,31.69
2018-07-08T06:59:06.032Z,31.69
2018-07-08T07:00:05.852Z,31.75
2018-07-08T07:01:05.701Z,31.75
2018-07-08T07:02:06.184Z,31.75
2018-07-08T07:03:05.704Z,31.69
2018-07-08T07:04:05.461Z,31.62
2018-07-08T07:05:05.866Z,31.69
2018-07-08T07:06:05.941Z,31.69
2018-07-08T07:07:05.951Z,31.69
2018-07-08T07:08:05.800Z,31.69
2018-07-08T07:09:06.346Z,31.69
2018-07-08T07:10:06.185Z,31.69
2018-07-08T07:11:06.441Z,31.69
2018-07-08T07:12:06.431Z,31.62
2018-07-08T07:13:06.090Z,31.69
2018-07-08T07:14:05.786Z,31.69
2018-07-08T07:15:05.651Z,31.62
2018-07-08T07:16:05.665Z,31.56
2018-07-08T07:17:06.673Z,31.56
2018-07-08T07:18:05.784Z,31.56
2018-07-08T07:19:06.329Z,31.44
2018-07-08T07:20:06.177Z,31.38
2018-07-08T07:21:06.361Z,31.19
2018-07-08T07:22:05.745Z,30.94
2018-07-08T07:23:06.051Z,31.00
2018-07-08T07:24:06.213Z,31.00
2018-07-08T07:25:05.746Z,30.94
2018-07-08T07:26:06.025Z,31.00
2018-07-08T07:27:05.712Z,31.00
2018-07-08T07:28:05.545Z,31.06
2018-07-08T07:29:05.540Z,31.06
2018-07-08T07:30:05.545Z,31.12
2018-07-08T07:31:06.194Z,31.12
2018-07-08T07:32:06.388Z,31.19
2018-07-08T07:33:06.267Z,31.12
2018-07-08T07:34:05.946Z,31.12
2018-07-08T07:35:05.817Z,31.19
2018-07-08T07:36:05.624Z,31.19
2018-07-08T07:37:06.025Z,31.19
2018-07-08T07:38:05.966Z,31.25
2018-07-08T07:39:06.580Z,31.19
2018-07-08T07:40:06.420Z,31.19
2018-07-08T07:41:06.412Z,31.25
2018-07-08T07:42:06.451Z,31.19
2018-07-08T07:43:05.791Z,31.19
2018-07-08T07:44:05.813Z,31.06
2018-07-08T07:45:06.974Z,31.06
2018-07-08T07:46:05.827Z,30.88
2018-07-08T07:47:06.350Z,30.81
2018-07-08T07:48:06.450Z,30.81
2018-07-08T07:49:06.344Z,30.88
2018-07-08T07:50:05.538Z,30.88
2018-07-08T07:51:05.872Z,30.88
2018-07-08T07:52:11.351Z,30.88
2018-07-08T07:53:05.851Z,30.88
2018-07-08T07:54:06.752Z,30.88
2018-07-08T07:55:05.513Z,30.94
2018-07-08T07:56:06.256Z,30.88
2018-07-08T07:57:05.686Z,30.88
2018-07-08T07:58:06.361Z,30.75
2018-07-08T07:59:11.147Z,30.75
2018-07-08T08:00:05.555Z,30.50
2018-07-08T08:01:06.743Z,30.31
2018-07-08T08:02:06.045Z,30.06
2018-07-08T08:03:05.954Z,29.75
2018-07-08T08:04:06.185Z,29.62
2018-07-08T08:05:06.089Z,29.56
2018-07-08T08:06:06.051Z,29.56
2018-07-08T08:07:06.520Z,29.56
2018-07-08T08:08:06.267Z,29.50
2018-07-08T08:09:05.784Z,29.56
2018-07-08T08:10:06.429Z,29.56
2018-07-08T08:11:05.941Z,29.50
2018-07-08T08:12:05.852Z,29.50
2018-07-08T08:13:05.956Z,29.44
2018-07-08T08:14:06.103Z,29.50
2018-07-08T08:15:10.805Z,29.50
2018-07-08T08:16:06.506Z,29.50
2018-07-08T08:17:06.106Z,29.50
2018-07-08T08:18:06.003Z,29.44
2018-07-08T08:19:05.877Z,29.50
2018-07-08T08:20:06.016Z,29.50
2018-07-08T08:21:05.791Z,29.50
2018-07-08T08:22:06.023Z,29.56
2018-07-08T08:23:06.171Z,29.56
2018-07-08T08:24:10.821Z,29.56
2018-07-08T08:25:06.255Z,29.56
2018-07-08T08:26:06.004Z,29.56
2018-07-08T08:27:05.778Z,29.56
2018-07-08T08:28:11.186Z,29.50
2018-07-08T08:29:05.555Z,29.44
2018-07-08T08:30:06.127Z,29.44
2018-07-08T08:31:06.421Z,29.38
2018-07-08T08:32:05.707Z,29.31
2018-07-08T08:33:05.887Z,29.25
2018-07-08T08:34:05.461Z,29.12
2018-07-08T08:35:06.110Z,28.94
2018-07-08T08:36:05.610Z,28.88
2018-07-08T08:37:05.564Z,28.94
2018-07-08T08:38:05.745Z,28.94
2018-07-08T08:39:06.532Z,29.00
2018-07-08T08:40:06.669Z,29.00
2018-07-08T08:41:06.158Z,29.00
2018-07-08T08:42:05.791Z,29.00
2018-07-08T08:43:06.145Z,28.88
2018-07-08T08:44:06.115Z,28.94
2018-07-08T08:45:06.290Z,28.94
2018-07-08T08:46:11.192Z,28.94
2018-07-08T08:47:05.856Z,28.88
2018-07-08T08:48:05.771Z,28.88
2018-07-08T08:49:06.594Z,28.94
2018-07-08T08:50:05.804Z,28.94
2018-07-08T08:51:06.341Z,28.88
2018-07-08T08:52:05.673Z,28.94
2018-07-08T08:53:06.257Z,28.88
2018-07-08T08:54:05.645Z,28.81
2018-07-08T08:55:06.486Z,28.75
2018-07-08T08:56:11.285Z,28.69
2018-07-08T08:57:06.258Z,28.38
2018-07-08T08:58:10.498Z,28.31
2018-07-08T08:59:11.177Z,28.25
2018-07-08T09:00:10.699Z,28.19
2018-07-08T09:01:06.040Z,28.19
2018-07-08T09:02:06.140Z,28.19
2018-07-08T09:03:11.255Z,28.19
2018-07-08T09:04:06.204Z,28.06
2018-07-08T09:05:06.987Z,28.06
2018-07-08T09:06:05.722Z,28.06
2018-07-08T09:07:06.529Z,28.00
2018-07-08T09:08:06.337Z,27.94
2018-07-08T09:09:05.803Z,27.88
2018-07-08T09:10:05.789Z,27.88
2018-07-08T09:11:05.544Z,27.81
2018-07-08T09:12:05.625Z,27.81
2018-07-08T09:13:06.675Z,27.69
2018-07-08T09:14:05.453Z,27.50
2018-07-08T09:15:06.522Z,27.31
2018-07-08T09:16:06.564Z,27.25
2018-07-08T09:17:05.518Z,27.12
2018-07-08T09:18:06.262Z,27.06
2018-07-08T09:19:05.854Z,27.06
2018-07-08T09:20:05.536Z,27.00
2018-07-08T09:21:06.531Z,27.06
2018-07-08T09:22:11.057Z,27.06
2018-07-08T09:23:05.710Z,27.06
2018-07-08T09:24:06.243Z,27.06
2018-07-08T09:25:05.945Z,27.06
2018-07-08T09:26:06.302Z,27.00
2018-07-08T09:27:05.685Z,27.06
2018-07-08T09:28:05.723Z,27.06
2018-07-08T09:29:06.173Z,27.06
2018-07-08T09:30:05.931Z,27.00
2018-07-08T09:31:06.093Z,27.00
2018-07-08T09:32:06.008Z,27.00
2018-07-08T09:33:05.854Z,26.94
2018-07-08T09:34:06.693Z,26.88
2018-07-08T09:35:05.713Z,26.88
2018-07-08T09:36:05.694Z,26.81
2018-07-08T09:37:07.315Z,26.75
2018-07-08T09:38:05.704Z,26.69
2018-07-08T09:39:06.019Z,26.69
2018-07-08T09:40:06.198Z,26.62
2018-07-08T09:41:05.376Z,26.50
2018-07-08T09:42:05.624Z,26.50
2018-07-08T09:43:06.419Z,26.44
2018-07-08T09:44:06.259Z,26.44
2018-07-08T09:45:06.514Z,26.44
2018-07-08T09:46:06.078Z,26.44
2018-07-08T09:47:05.948Z,26.44
2018-07-08T09:48:06.106Z,26.19
2018-07-08T09:49:06.235Z,26.06
2018-07-08T09:50:05.798Z,26.12
2018-07-08T09:51:05.694Z,26.19
2018-07-08T09:52:05.855Z,26.19
2018-07-08T09:53:07.384Z,26.25
2018-07-08T09:54:06.191Z,26.25
2018-07-08T09:55:05.690Z,26.31
2018-07-08T09:56:05.609Z,26.38
2018-07-08T09:57:06.068Z,26.38
2018-07-08T09:58:05.698Z,26.44
2018-07-08T09:59:06.484Z,26.44
2018-07-08T10:00:06.099Z,26.50
2018-07-08T10:01:06.427Z,26.50
2018-07-08T10:02:06.663Z,26.50
2018-07-08T10:03:05.850Z,26.50
2018-07-08T10:04:05.697Z,26.50
2018-07-08T10:05:06.635Z,26.50
2018-07-08T10:06:05.534Z,26.50
2018-07-08T10:07:11.950Z,26.50
2018-07-08T10:08:05.579Z,26.50
2018-07-08T10:09:06.640Z,26.50
2018-07-08T10:10:10.938Z,26.56
2018-07-08T10:11:06.711Z,26.62
2018-07-08T10:12:05.620Z,26.62
2018-07-08T10:13:05.703Z,26.62
2018-07-08T10:14:06.125Z,26.62
2018-07-08T10:15:06.053Z,26.69
2018-07-08T10:16:06.021Z,26.69
2018-07-08T10:17:06.444Z,26.75
2018-07-08T10:18:06.344Z,26.75
2018-07-08T10:19:05.786Z,26.75
2018-07-08T10:20:05.469Z,26.69
2018-07-08T10:21:05.534Z,26.62
2018-07-08T10:22:06.093Z,26.69
2018-07-08T10:23:06.119Z,26.62
2018-07-08T10:24:05.909Z,26.62
2018-07-08T10:25:06.261Z,26.62
2018-07-08T10:26:06.336Z,26.69
2018-07-08T10:27:06.189Z,26.69
2018-07-08T10:28:05.701Z,26.75
2018-07-08T10:29:06.320Z,26.75
2018-07-08T10:30:05.798Z,26.81
2018-07-08T10:31:05.885Z,26.81
2018-07-08T10:32:06.003Z,26.88
2018-07-08T10:33:05.454Z,26.88
2018-07-08T10:34:06.103Z,26.94
2018-07-08T10:35:05.847Z,26.94
2018-07-08T10:36:06.484Z,27.00
2018-07-08T10:37:11.182Z,26.94
2018-07-08T10:38:05.505Z,26.94
2018-07-08T10:39:05.462Z,26.88
2018-07-08T10:40:05.721Z,26.81
2018-07-08T10:41:10.637Z,26.75
2018-07-08T10:42:06.258Z,26.69
2018-07-08T10:43:05.546Z,26.69
2018-07-08T10:44:05.769Z,26.69
2018-07-08T10:45:05.403Z,26.69
2018-07-08T10:46:05.614Z,26.56
2018-07-08T10:47:05.614Z,26.56
2018-07-08T10:48:06.483Z,26.62
2018-07-08T10:49:05.626Z,26.56
2018-07-08T10:50:06.797Z,26.50
2018-07-08T10:51:06.005Z,26.50
2018-07-08T10:52:10.806Z,26.44
2018-07-08T10:53:06.257Z,26.44
2018-07-08T10:54:05.549Z,26.44
2018-07-08T10:55:06.330Z,26.44
2018-07-08T10:56:06.062Z,26.44
2018-07-08T10:57:11.334Z,26.50
2018-07-08T10:58:05.991Z,26.56
2018-07-08T10:59:05.700Z,26.56
2018-07-08T11:00:06.175Z,26.62
2018-07-08T11:01:05.655Z,26.69
2018-07-08T11:02:06.259Z,26.69
2018-07-08T11:03:06.250Z,26.75
2018-07-08T11:04:05.613Z,26.69
2018-07-08T11:05:11.283Z,26.69
2018-07-08T11:06:05.813Z,26.56
2018-07-08T11:07:06.041Z,26.50
2018-07-08T11:08:06.107Z,26.50
2018-07-08T11:09:05.524Z,26.44
2018-07-08T11:10:05.857Z,26.44
2018-07-08T11:11:05.690Z,26.38
2018-07-08T11:12:11.047Z,26.38
2018-07-08T11:13:06.417Z,26.38
2018-07-08T11:14:06.649Z,26.31
2018-07-08T11:15:11.317Z,26.31
2018-07-08T11:16:05.876Z,26.38
2018-07-08T11:17:05.770Z,26.38
2018-07-08T11:18:06.300Z,26.44
2018-07-08T11:19:10.773Z,26.44
2018-07-08T11:20:06.023Z,26.50
2018-07-08T11:21:06.306Z,26.56
2018-07-08T11:22:05.541Z,26.56
2018-07-08T11:23:06.712Z,26.56
2018-07-08T11:24:11.280Z,26.62
2018-07-08T11:25:05.937Z,26.62
2018-07-08T11:26:06.171Z,26.56
2018-07-08T11:27:06.095Z,26.56
2018-07-08T11:28:05.879Z,26.50
2018-07-08T11:29:05.644Z,26.56
2018-07-08T11:30:06.029Z,26.56
2018-07-08T11:31:05.616Z,26.56
2018-07-08T11:32:06.257Z,26.50
2018-07-08T11:33:06.375Z,26.50
2018-07-08T11:34:05.782Z,26.50
2018-07-08T11:35:05.692Z,26.50
2018-07-08T11:36:05.704Z,26.50
2018-07-08T11:37:06.177Z,26.50
2018-07-08T11:38:06.286Z,26.50
2018-07-08T11:39:06.117Z,26.50
2018-07-08T11:40:05.470Z,26.56
2018-07-08T11:41:06.260Z,26.56
2018-07-08T11:42:06.453Z,26.62
2018-07-08T11:43:05.865Z,26.75
2018-07-08T11:44:06.677Z,26.81
2018-07-08T11:45:05.741Z,26.75
2018-07-08T11:46:05.940Z,26.69
2018-07-08T11:47:05.593Z,26.69
2018-07-08T11:48:06.244Z,26.75
2018-07-08T11:49:05.537Z,26.69
2018-07-08T11:50:06.100Z,26.69
2018-07-08T11:51:05.690Z,26.69
2018-07-08T11:52:06.536Z,26.69
2018-07-08T11:53:06.249Z,26.62
2018-07-08T11:54:05.847Z,26.62
2018-07-08T11:55:05.856Z,26.62
2018-07-08T11:56:05.388Z,26.62
2018-07-08T11:57:06.090Z,26.62
2018-07-08T11:58:05.795Z,26.62
2018-07-08T11:59:06.478Z,26.56
2018-07-08T12:00:05.552Z,26.56
2018-07-08T12:01:05.706Z,26.44
2018-07-08T12:02:06.028Z,26.44
2018-07-08T12:03:05.635Z,26.44
2018-07-08T12:04:06.102Z,26.38
2018-07-08T12:05:05.994Z,26.31
2018-07-08T12:06:05.369Z,26.25
2018-07-08T12:07:06.320Z,26.31
2018-07-08T12:08:06.097Z,26.38
2018-07-08T12:09:05.992Z,26.38
2018-07-08T12:10:06.094Z,26.44
2018-07-08T12:11:05.866Z,26.44
2018-07-08T12:12:05.947Z,26.50
2018-07-08T12:13:05.947Z,26.56
2018-07-08T12:14:06.184Z,26.62
2018-07-08T12:15:15.851Z,26.69
2018-07-08T12:16:05.469Z,26.69
2018-07-08T12:17:05.896Z,26.69
2018-07-08T12:18:10.547Z,26.75
2018-07-08T12:19:11.293Z,26.69
2018-07-08T12:20:05.881Z,26.69
2018-07-08T12:21:05.961Z,26.75
2018-07-08T12:22:06.260Z,26.75
2018-07-08T12:23:05.684Z,26.81
2018-07-08T12:24:05.906Z,26.75
2018-07-08T12:25:06.430Z,26.75
2018-07-08T12:26:05.875Z,26.75
2018-07-08T12:27:06.464Z,26.69
2018-07-08T12:28:05.881Z,26.62
2018-07-08T12:29:05.947Z,26.69
2018-07-08T12:30:11.446Z,26.75
2018-07-08T12:31:05.780Z,26.75
2018-07-08T12:32:06.267Z,26.75
2018-07-08T12:33:05.938Z,26.81
2018-07-08T12:34:05.695Z,26.81
2018-07-08T12:35:06.322Z,26.81
2018-07-08T12:36:05.694Z,26.81
2018-07-08T12:37:05.711Z,26.81
2018-07-08T12:38:06.314Z,26.81
2018-07-08T12:39:05.533Z,26.81
2018-07-08T12:40:06.018Z,26.81
2018-07-08T12:41:05.777Z,26.88
2018-07-08T12:42:06.197Z,26.88
2018-07-08T12:43:06.414Z,26.88
2018-07-08T12:44:06.262Z,26.75
2018-07-08T12:45:05.699Z,26.81
2018-07-08T12:46:05.995Z,26.62
2018-07-08T12:47:06.333Z,26.62
2018-07-08T12:48:05.463Z,26.69
2018-07-08T12:49:06.113Z,26.69
2018-07-08T12:50:05.431Z,26.75
2018-07-08T12:51:06.265Z,26.81
2018-07-08T12:52:06.434Z,26.81